Аэропорт: Атырау. Атырау

ICAO: UATG

METAR:
2020-08-09 23:30:00
UATG 092330Z 32003MPS CAVOK 16/07 Q1006 R32/CLRD70 NOSIG RMK QFE756/1008
METAR:
2020-08-09 17:05:00
TAF UATG 091705Z 0918/1018 32006MPS 9999 SCT033CB TX29/1009Z TN18/1001Z BECMG 1004/1006 30008G13MPS